createdAt,value
2023-04-26T00:00:58.204Z,0.00
2023-04-26T00:01:58.187Z,0.00
2023-04-26T00:02:58.432Z,0.00
2023-04-26T00:03:58.343Z,0.00
2023-04-26T00:04:58.495Z,0.00
2023-04-26T00:05:58.171Z,0.00
2023-04-26T00:06:58.277Z,0.00
2023-04-26T00:07:58.144Z,0.00
2023-04-26T00:08:58.105Z,0.00
2023-04-26T00:09:58.106Z,0.00
2023-04-26T00:10:58.084Z,0.00
2023-04-26T00:11:58.068Z,0.00
2023-04-26T00:12:58.054Z,0.00
2023-04-26T00:13:58.044Z,0.00
2023-04-26T00:14:58.027Z,0.00
2023-04-26T00:15:58.062Z,0.00
2023-04-26T00:16:58.009Z,0.00
2023-04-26T00:17:58.098Z,0.00
2023-04-26T00:18:57.997Z,0.00
2023-04-26T00:19:57.976Z,0.00
2023-04-26T00:20:57.960Z,0.00
2023-04-26T00:21:57.961Z,0.00
2023-04-26T00:22:57.973Z,0.00
2023-04-26T00:23:57.943Z,0.00
2023-04-26T00:24:57.906Z,0.00
2023-04-26T00:25:57.915Z,0.00
2023-04-26T00:26:57.903Z,0.00
2023-04-26T00:27:57.873Z,0.00
2023-04-26T00:28:57.879Z,0.00
2023-04-26T00:29:57.843Z,0.00
2023-04-26T00:30:57.935Z,0.00
2023-04-26T00:31:57.877Z,0.00
2023-04-26T00:32:57.868Z,0.00
2023-04-26T00:33:57.792Z,0.00
2023-04-26T00:34:57.799Z,0.00
2023-04-26T00:35:57.769Z,0.00
2023-04-26T00:36:57.757Z,0.00
2023-04-26T00:37:57.747Z,0.00
2023-04-26T00:38:57.764Z,0.00
2023-04-26T00:39:57.722Z,0.00
2023-04-26T00:40:57.730Z,0.00
2023-04-26T00:41:57.694Z,0.00
2023-04-26T00:42:57.678Z,0.00
2023-04-26T00:43:57.679Z,0.00
2023-04-26T00:44:57.833Z,0.00
2023-04-26T00:45:57.681Z,0.00
2023-04-26T00:46:57.639Z,0.00
2023-04-26T00:47:57.643Z,0.00
2023-04-26T00:48:57.605Z,0.00
2023-04-26T00:49:57.592Z,0.00
2023-04-26T00:50:57.582Z,0.00
2023-04-26T00:51:57.568Z,0.00
2023-04-26T00:52:57.556Z,0.00
2023-04-26T00:53:57.542Z,0.00
2023-04-26T00:54:57.579Z,0.00
2023-04-26T00:55:57.612Z,0.00
2023-04-26T00:56:57.520Z,0.00
2023-04-26T00:57:57.497Z,0.00
2023-04-26T00:58:57.484Z,0.00
2023-04-26T00:59:57.468Z,0.00
2023-04-26T01:00:57.492Z,0.00
2023-04-26T01:01:57.494Z,0.00
2023-04-26T01:02:57.553Z,0.00
2023-04-26T01:03:57.593Z,0.00
2023-04-26T01:04:57.417Z,0.00
2023-04-26T01:05:57.393Z,0.00
2023-04-26T01:06:57.373Z,0.00
2023-04-26T01:07:57.363Z,0.00
2023-04-26T01:08:57.351Z,0.00
2023-04-26T01:09:57.338Z,0.00
2023-04-26T01:10:57.353Z,0.00
2023-04-26T01:11:57.313Z,0.00
2023-04-26T01:12:57.303Z,0.00
2023-04-26T01:13:57.290Z,0.00
2023-04-26T01:14:57.275Z,0.00
2023-04-26T01:15:57.267Z,0.00
2023-04-26T01:16:57.334Z,0.00
2023-04-26T01:17:57.343Z,0.00
2023-04-26T01:18:57.223Z,0.00
2023-04-26T01:19:57.211Z,0.00
2023-04-26T01:20:57.218Z,0.00
2023-04-26T01:21:57.182Z,0.00
2023-04-26T01:22:57.173Z,0.00
2023-04-26T01:23:57.158Z,0.00
2023-04-26T01:24:57.157Z,0.00
2023-04-26T01:25:57.133Z,0.00
2023-04-26T01:26:57.150Z,0.00
2023-04-26T01:27:57.107Z,0.00
2023-04-26T01:28:57.095Z,0.00
2023-04-26T01:29:57.083Z,0.00
2023-04-26T01:30:57.107Z,0.00
2023-04-26T01:31:57.058Z,0.00
2023-04-26T01:32:57.087Z,0.00
2023-04-26T01:33:57.031Z,0.00
2023-04-26T01:34:57.015Z,0.00
2023-04-26T01:35:57.004Z,0.00
2023-04-26T01:36:57.000Z,0.00
2023-04-26T01:37:56.982Z,0.00
2023-04-26T01:38:56.970Z,0.00
2023-04-26T01:39:56.953Z,0.00
2023-04-26T01:40:56.943Z,0.00
2023-04-26T01:41:56.930Z,0.00
2023-04-26T01:42:56.947Z,0.00
2023-04-26T01:43:56.905Z,0.00
2023-04-26T01:44:56.897Z,0.00
2023-04-26T01:45:56.912Z,0.00
2023-04-26T01:46:56.865Z,0.00
2023-04-26T01:47:56.909Z,0.00
2023-04-26T01:48:56.842Z,0.00
2023-04-26T01:49:56.826Z,0.00
2023-04-26T01:50:56.813Z,0.00
2023-04-26T01:51:56.807Z,0.00
2023-04-26T01:52:56.793Z,0.00
2023-04-26T01:53:56.784Z,0.00
2023-04-26T01:54:56.764Z,0.00
2023-04-26T01:55:56.755Z,0.00
2023-04-26T01:56:56.738Z,0.00
2023-04-26T01:57:56.727Z,0.00
2023-04-26T01:58:56.735Z,0.00
2023-04-26T01:59:56.697Z,0.00
2023-04-26T02:00:56.691Z,0.00
2023-04-26T02:01:56.738Z,0.00
2023-04-26T02:02:56.728Z,0.00
2023-04-26T02:03:56.647Z,0.00
2023-04-26T02:04:56.697Z,0.00
2023-04-26T02:05:56.625Z,0.00
2023-04-26T02:06:56.621Z,0.00
2023-04-26T02:07:56.601Z,0.00
2023-04-26T02:08:56.583Z,0.00
2023-04-26T02:09:56.578Z,0.00
2023-04-26T02:10:56.594Z,0.00
2023-04-26T02:11:56.552Z,0.00
2023-04-26T02:12:56.541Z,0.00
2023-04-26T02:13:56.529Z,0.00
2023-04-26T02:14:56.535Z,0.00
2023-04-26T02:15:56.512Z,0.00
2023-04-26T02:16:56.488Z,0.00
2023-04-26T02:17:56.485Z,0.00
2023-04-26T02:18:56.462Z,0.00
2023-04-26T02:19:56.454Z,0.00
2023-04-26T02:20:56.438Z,0.00
2023-04-26T02:21:56.434Z,0.00
2023-04-26T02:22:56.415Z,0.00
2023-04-26T02:23:56.411Z,0.00
2023-04-26T02:24:56.388Z,0.00
2023-04-26T02:25:56.432Z,0.00
2023-04-26T02:26:56.378Z,0.00
2023-04-26T02:27:56.356Z,0.00
2023-04-26T02:28:56.337Z,0.00
2023-04-26T02:29:56.328Z,0.00
2023-04-26T02:30:56.359Z,0.00
2023-04-26T02:31:56.347Z,0.00
2023-04-26T02:32:56.305Z,0.00
2023-04-26T02:33:56.280Z,0.00
2023-04-26T02:34:56.263Z,0.00
2023-04-26T02:35:56.252Z,0.00
2023-04-26T02:36:56.240Z,0.00
2023-04-26T02:37:56.222Z,0.00
2023-04-26T02:38:56.212Z,0.00
2023-04-26T02:39:56.207Z,0.00
2023-04-26T02:40:56.186Z,0.00
2023-04-26T02:41:56.180Z,0.00
2023-04-26T02:42:56.162Z,0.00
2023-04-26T02:43:56.148Z,0.00
2023-04-26T02:44:56.142Z,0.00
2023-04-26T02:45:56.120Z,0.00
2023-04-26T02:46:56.190Z,0.00
2023-04-26T02:47:56.195Z,0.00
2023-04-26T02:48:56.086Z,0.00
2023-04-26T02:49:56.073Z,0.00
2023-04-26T02:50:56.057Z,0.00
2023-04-26T02:51:56.045Z,0.00
2023-04-26T02:52:56.033Z,0.00
2023-04-26T02:53:56.019Z,0.00
2023-04-26T02:54:56.049Z,0.00
2023-04-26T02:55:56.000Z,0.00
2023-04-26T02:56:55.980Z,0.00
2023-04-26T02:57:55.967Z,0.00
2023-04-26T02:58:55.956Z,0.00
2023-04-26T02:59:55.942Z,0.00
2023-04-26T03:00:55.951Z,0.00
2023-04-26T03:01:55.972Z,0.00
2023-04-26T03:02:56.116Z,0.00
2023-04-26T03:03:55.978Z,0.00
2023-04-26T03:04:55.899Z,0.00
2023-04-26T03:05:55.866Z,0.00
2023-04-26T03:06:55.856Z,0.00
2023-04-26T03:07:55.840Z,0.00
2023-04-26T03:08:55.829Z,0.00
2023-04-26T03:09:55.826Z,0.00
2023-04-26T03:10:55.805Z,0.00
2023-04-26T03:11:55.790Z,0.00
2023-04-26T03:12:55.777Z,0.00
2023-04-26T03:13:55.764Z,0.00
2023-04-26T03:14:55.771Z,0.00
2023-04-26T03:15:55.741Z,0.00
2023-04-26T03:16:55.882Z,0.00
2023-04-26T03:17:55.771Z,0.00
2023-04-26T03:18:55.728Z,0.00
2023-04-26T03:19:55.694Z,0.00
2023-04-26T03:20:55.680Z,0.00
2023-04-26T03:21:55.668Z,0.00
2023-04-26T03:22:55.655Z,0.00
2023-04-26T03:23:55.647Z,0.00
2023-04-26T03:24:55.632Z,0.00
2023-04-26T03:25:55.626Z,0.00
2023-04-26T03:26:55.617Z,0.00
2023-04-26T03:27:55.593Z,0.00
2023-04-26T03:28:55.585Z,0.00
2023-04-26T03:29:55.567Z,0.00
2023-04-26T03:30:55.560Z,0.00
2023-04-26T03:31:55.669Z,0.00
2023-04-26T03:32:55.561Z,0.00
2023-04-26T03:33:55.517Z,0.00
2023-04-26T03:34:55.534Z,0.00
2023-04-26T03:35:55.492Z,0.00
2023-04-26T03:36:55.496Z,0.00
2023-04-26T03:37:57.949Z,4.00
2023-04-26T03:38:55.453Z,4.00
2023-04-26T03:39:55.441Z,0.00
2023-04-26T03:40:55.434Z,0.00
2023-04-26T03:41:55.425Z,4.00
2023-04-26T03:42:55.432Z,4.00
2023-04-26T03:43:55.409Z,4.00
2023-04-26T03:44:55.384Z,4.00
2023-04-26T03:45:55.425Z,4.00
2023-04-26T03:46:55.358Z,4.00
2023-04-26T03:47:55.513Z,8.00
2023-04-26T03:48:55.369Z,12.00
2023-04-26T03:49:55.319Z,12.00
2023-04-26T03:50:55.331Z,12.00
2023-04-26T03:51:55.307Z,16.00
2023-04-26T03:52:55.282Z,20.00
2023-04-26T03:53:55.272Z,20.00
2023-04-26T03:54:55.256Z,24.00
2023-04-26T03:55:55.245Z,28.00
2023-04-26T03:56:55.245Z,32.00
2023-04-26T03:57:55.230Z,36.00
2023-04-26T03:58:55.204Z,44.00
2023-04-26T03:59:55.186Z,52.00
2023-04-26T04:00:55.178Z,60.00
2023-04-26T04:01:55.167Z,68.00
2023-04-26T04:02:55.246Z,80.00
2023-04-26T04:03:55.444Z,92.00
2023-04-26T04:04:55.379Z,100.00
2023-04-26T04:05:55.115Z,116.00
2023-04-26T04:06:55.128Z,128.00
2023-04-26T04:07:55.090Z,148.00
2023-04-26T04:08:55.351Z,164.00
2023-04-26T04:09:55.064Z,188.00
2023-04-26T04:10:55.055Z,208.00
2023-04-26T04:11:55.059Z,232.00
2023-04-26T04:12:55.028Z,256.00
2023-04-26T04:13:55.065Z,280.00
2023-04-26T04:14:55.003Z,312.00
2023-04-26T04:15:55.062Z,340.00
2023-04-26T04:16:55.070Z,376.00
2023-04-26T04:17:55.010Z,408.00
2023-04-26T04:18:55.273Z,444.00
2023-04-26T04:19:54.950Z,484.00
2023-04-26T04:20:54.926Z,524.00
2023-04-26T04:21:54.921Z,564.00
2023-04-26T04:22:54.922Z,604.00
2023-04-26T04:23:54.895Z,652.00
2023-04-26T04:24:54.878Z,700.00
2023-04-26T04:25:54.862Z,748.00
2023-04-26T04:26:54.860Z,796.00
2023-04-26T04:27:54.843Z,848.00
2023-04-26T04:28:54.975Z,900.00
2023-04-26T04:29:54.812Z,956.00
2023-04-26T04:30:54.833Z,1012.00
2023-04-26T04:31:54.785Z,1068.00
2023-04-26T04:32:54.820Z,1124.00
2023-04-26T04:33:54.761Z,1184.00
2023-04-26T04:34:54.745Z,1244.00
2023-04-26T04:35:54.738Z,1304.00
2023-04-26T04:36:54.732Z,1364.00
2023-04-26T04:37:54.711Z,1424.00
2023-04-26T04:38:54.993Z,1488.00
2023-04-26T04:39:54.689Z,1556.00
2023-04-26T04:40:54.671Z,1620.00
2023-04-26T04:41:54.666Z,1680.00
2023-04-26T04:42:54.649Z,1740.00
2023-04-26T04:43:54.646Z,1804.00
2023-04-26T04:44:54.631Z,1872.00
2023-04-26T04:45:54.614Z,1940.00
2023-04-26T04:46:54.652Z,2000.00
2023-04-26T04:47:54.629Z,2064.00
2023-04-26T04:48:54.837Z,2128.00
2023-04-26T04:49:54.565Z,2196.00
2023-04-26T04:50:54.551Z,2256.00
2023-04-26T04:51:54.536Z,2316.00
2023-04-26T04:52:54.523Z,2376.00
2023-04-26T04:53:54.514Z,2432.00
2023-04-26T04:54:54.522Z,2488.00
2023-04-26T04:55:54.485Z,2540.00
2023-04-26T04:56:54.473Z,2596.00
2023-04-26T04:57:54.459Z,2656.00
2023-04-26T04:58:54.592Z,2712.00
2023-04-26T04:59:54.439Z,2772.00
2023-04-26T05:00:54.430Z,2828.00
2023-04-26T05:02:54.713Z,3240.00
2023-04-26T05:03:54.776Z,3600.00
2023-04-26T05:04:54.437Z,3660.00
2023-04-26T05:05:54.362Z,3552.00
2023-04-26T05:06:54.355Z,3664.00
2023-04-26T05:07:54.338Z,3848.00
2023-04-26T05:08:54.329Z,3764.00
2023-04-26T05:09:54.314Z,4124.00
2023-04-26T05:10:54.325Z,4576.00
2023-04-26T05:11:54.288Z,4544.00
2023-04-26T05:12:54.293Z,4612.00
2023-04-26T05:13:54.569Z,4812.00
2023-04-26T05:14:54.250Z,4760.00
2023-04-26T05:15:54.309Z,5076.00
2023-04-26T05:16:54.273Z,5248.00
2023-04-26T05:17:54.216Z,5260.00
2023-04-26T05:18:54.202Z,5452.00
2023-04-26T05:19:54.185Z,5944.00
2023-04-26T05:20:54.181Z,6020.00
2023-04-26T05:21:54.170Z,5808.00
2023-04-26T05:22:54.153Z,5940.00
2023-04-26T05:23:54.350Z,6364.00
2023-04-26T05:24:54.128Z,6552.00
2023-04-26T05:25:54.105Z,6488.00
2023-04-26T05:26:54.121Z,7088.00
2023-04-26T05:27:54.081Z,7356.00
2023-04-26T05:28:54.097Z,7528.00
2023-04-26T05:29:54.057Z,8040.00
2023-04-26T05:30:54.047Z,8688.00
2023-04-26T05:31:54.092Z,9100.00
2023-04-26T05:32:54.092Z,9700.00
2023-04-26T05:33:54.269Z,10692.00
2023-04-26T05:34:53.999Z,12024.00
2023-04-26T05:35:53.982Z,13228.00
2023-04-26T05:36:53.972Z,13956.00
2023-04-26T05:37:53.957Z,13296.00
2023-04-26T05:38:53.945Z,12344.00
2023-04-26T05:39:53.929Z,11952.00
2023-04-26T05:40:53.922Z,12696.00
2023-04-26T05:41:53.910Z,12436.00
2023-04-26T05:42:53.914Z,11888.00
2023-04-26T05:43:54.130Z,11744.00
2023-04-26T05:44:53.862Z,12100.00
2023-04-26T05:45:53.914Z,15360.00
2023-04-26T05:46:53.836Z,17632.00
2023-04-26T05:47:53.893Z,15456.00
2023-04-26T05:48:53.808Z,12648.00
2023-04-26T05:49:53.828Z,13480.00
2023-04-26T05:50:53.785Z,16064.00
2023-04-26T05:51:53.776Z,13840.00
2023-04-26T05:52:53.756Z,13888.00
2023-04-26T05:53:54.032Z,10240.00
2023-04-26T05:54:53.730Z,9424.00
2023-04-26T05:55:53.725Z,9544.00
2023-04-26T05:56:53.706Z,9500.00
2023-04-26T05:57:53.735Z,9500.00
2023-04-26T05:58:53.710Z,9464.00
2023-04-26T05:59:53.676Z,9232.00
2023-04-26T06:00:53.650Z,9580.00
2023-04-26T06:01:53.788Z,9288.00
2023-04-26T06:02:53.707Z,9556.00
2023-04-26T06:03:55.958Z,9608.00
2023-04-26T06:04:53.841Z,9728.00
2023-04-26T06:05:53.660Z,9804.00
2023-04-26T06:06:53.574Z,9824.00
2023-04-26T06:07:53.560Z,9900.00
2023-04-26T06:08:53.549Z,9964.00
2023-04-26T06:09:53.540Z,10044.00
2023-04-26T06:10:53.521Z,10188.00
2023-04-26T06:11:53.511Z,10516.00
2023-04-26T06:12:53.503Z,10912.00
2023-04-26T06:13:53.724Z,12428.00
2023-04-26T06:14:53.552Z,15136.00
2023-04-26T06:15:53.461Z,17536.00
2023-04-26T06:16:53.481Z,19168.00
2023-04-26T06:17:53.542Z,19648.00
2023-04-26T06:18:53.420Z,20608.00
2023-04-26T06:19:53.418Z,20576.00
2023-04-26T06:20:53.392Z,20416.00
2023-04-26T06:21:53.381Z,21184.00
2023-04-26T06:22:53.375Z,21952.00
2023-04-26T06:23:53.673Z,21920.00
2023-04-26T06:24:53.343Z,20736.00
2023-04-26T06:25:53.335Z,20992.00
2023-04-26T06:26:53.311Z,22496.00
2023-04-26T06:27:53.299Z,23232.00
2023-04-26T06:28:53.287Z,23648.00
2023-04-26T06:29:53.279Z,23904.00
2023-04-26T06:30:53.330Z,23360.00
2023-04-26T06:31:53.264Z,23168.00
2023-04-26T06:32:53.298Z,24992.00
2023-04-26T06:33:53.545Z,23200.00
2023-04-26T06:34:53.214Z,21120.00
2023-04-26T06:35:53.212Z,21984.00
2023-04-26T06:36:53.184Z,23040.00
2023-04-26T06:37:53.172Z,25248.00
2023-04-26T06:38:53.160Z,24800.00
2023-04-26T06:39:53.153Z,26912.00
2023-04-26T06:40:53.131Z,28448.00
2023-04-26T06:41:53.126Z,28864.00
2023-04-26T06:42:53.105Z,29088.00
2023-04-26T06:43:53.404Z,28928.00
2023-04-26T06:44:53.080Z,28768.00
2023-04-26T06:45:53.168Z,27616.00
2023-04-26T06:46:53.266Z,29056.00
2023-04-26T06:47:53.105Z,29408.00
2023-04-26T06:48:53.029Z,28384.00
2023-04-26T06:49:53.016Z,29376.00
2023-04-26T06:50:53.002Z,29632.00
2023-04-26T06:51:53.014Z,30944.00
2023-04-26T06:52:52.978Z,32000.00
2023-04-26T06:53:53.205Z,28384.00
2023-04-26T06:54:56.897Z,33376.00
2023-04-26T06:55:52.937Z,33792.00
2023-04-26T06:56:52.928Z,34560.00
2023-04-26T06:57:52.927Z,33984.00
2023-04-26T06:58:52.898Z,34400.00
2023-04-26T06:59:52.888Z,35072.00
2023-04-26T07:00:52.870Z,34400.00
2023-04-26T07:01:52.939Z,33888.00
2023-04-26T07:02:53.128Z,37440.00
2023-04-26T07:03:53.266Z,38720.00
2023-04-26T07:04:53.012Z,37632.00
2023-04-26T07:05:52.807Z,40992.00
2023-04-26T07:06:52.815Z,41760.00
2023-04-26T07:07:52.783Z,40992.00
2023-04-26T07:08:53.454Z,41984.00
2023-04-26T07:09:52.766Z,38560.00
2023-04-26T07:10:52.752Z,43072.00
2023-04-26T07:11:52.739Z,32608.00
2023-04-26T07:12:52.721Z,31264.00
2023-04-26T07:13:52.982Z,37760.00
2023-04-26T07:14:52.694Z,43872.00
2023-04-26T07:15:52.733Z,43584.00
2023-04-26T07:16:52.672Z,42880.00
2023-04-26T07:17:52.724Z,44352.00
2023-04-26T07:18:52.667Z,44608.00
2023-04-26T07:19:54.017Z,43744.00
2023-04-26T07:20:52.628Z,44032.00
2023-04-26T07:21:52.604Z,44352.00
2023-04-26T07:22:52.595Z,43808.00
2023-04-26T07:23:53.014Z,39360.00
2023-04-26T07:24:52.570Z,35168.00
2023-04-26T07:25:52.556Z,35776.00
2023-04-26T07:26:52.545Z,38080.00
2023-04-26T07:27:52.532Z,40224.00
2023-04-26T07:28:52.517Z,36672.00
2023-04-26T07:29:52.511Z,38816.00
2023-04-26T07:30:52.491Z,38688.00
2023-04-26T07:31:52.553Z,38528.00
2023-04-26T07:32:52.510Z,41760.00
2023-04-26T07:33:52.819Z,40672.00
2023-04-26T07:34:52.704Z,34272.00
2023-04-26T07:35:52.430Z,40832.00
2023-04-26T07:36:52.421Z,32032.00
2023-04-26T07:37:52.404Z,30784.00
2023-04-26T07:38:52.393Z,36672.00
2023-04-26T07:39:52.382Z,40096.00
2023-04-26T07:40:52.369Z,44480.00
2023-04-26T07:41:52.365Z,43424.00
2023-04-26T07:42:52.345Z,40640.00
2023-04-26T07:43:52.525Z,45120.00
2023-04-26T07:44:52.323Z,51296.00
2023-04-26T07:45:52.313Z,37440.00
2023-04-26T07:46:52.290Z,36512.00
2023-04-26T07:47:52.346Z,46848.00
2023-04-26T07:48:52.266Z,55168.00
2023-04-26T07:49:52.253Z,52992.00
2023-04-26T07:50:52.315Z,31296.00
2023-04-26T07:51:52.240Z,38080.00
2023-04-26T07:52:52.218Z,18048.00
2023-04-26T07:53:52.447Z,17728.00
2023-04-26T07:54:52.187Z,15572.00
2023-04-26T07:55:52.184Z,14692.00
2023-04-26T07:56:52.175Z,14788.00
2023-04-26T07:57:52.155Z,15096.00
2023-04-26T07:58:52.136Z,16040.00
2023-04-26T07:59:52.122Z,34464.00
2023-04-26T08:00:52.120Z,35744.00
2023-04-26T08:01:52.136Z,32096.00
2023-04-26T08:02:52.411Z,32928.00
2023-04-26T08:03:52.350Z,34976.00
2023-04-26T08:04:52.220Z,43840.00
2023-04-26T08:05:52.323Z,39712.00
2023-04-26T08:06:52.084Z,30624.00
2023-04-26T08:07:52.039Z,35168.00
2023-04-26T08:08:52.008Z,42080.00
2023-04-26T08:09:51.992Z,41792.00
2023-04-26T08:10:51.981Z,40960.00
2023-04-26T08:11:51.982Z,23424.00
2023-04-26T08:12:51.954Z,30016.00
2023-04-26T08:13:52.174Z,22176.00
2023-04-26T08:14:51.928Z,22464.00
2023-04-26T08:15:51.920Z,53056.00
2023-04-26T08:16:52.109Z,49440.00
2023-04-26T08:17:51.905Z,48192.00
2023-04-26T08:18:51.894Z,45024.00
2023-04-26T08:19:51.866Z,42336.00
2023-04-26T08:20:51.849Z,37696.00
2023-04-26T08:21:51.842Z,38400.00
2023-04-26T08:22:51.849Z,38560.00
2023-04-26T08:23:52.043Z,37248.00
2023-04-26T08:24:51.798Z,35488.00
2023-04-26T08:25:51.787Z,33856.00
2023-04-26T08:26:51.777Z,35136.00
2023-04-26T08:27:51.757Z,36192.00
2023-04-26T08:28:51.750Z,39488.00
2023-04-26T08:29:51.739Z,39328.00
2023-04-26T08:30:51.755Z,40768.00
2023-04-26T08:31:51.709Z,41216.00
2023-04-26T08:32:51.716Z,38464.00
2023-04-26T08:33:51.982Z,41888.00
2023-04-26T08:34:51.672Z,44576.00
2023-04-26T08:35:51.672Z,48416.00
2023-04-26T08:36:51.658Z,49088.00
2023-04-26T08:37:51.651Z,48064.00
2023-04-26T08:38:51.654Z,45920.00
2023-04-26T08:39:51.614Z,49568.00
2023-04-26T08:40:51.590Z,44576.00
2023-04-26T08:41:51.581Z,41152.00
2023-04-26T08:42:51.581Z,34496.00
2023-04-26T08:43:51.888Z,32672.00
2023-04-26T08:44:51.543Z,41856.00
2023-04-26T08:45:51.562Z,42784.00
2023-04-26T08:46:51.524Z,41024.00
2023-04-26T08:47:51.632Z,42464.00
2023-04-26T08:48:51.494Z,40704.00
2023-04-26T08:49:51.480Z,42304.00
2023-04-26T08:50:51.469Z,45856.00
2023-04-26T08:51:51.454Z,37632.00
2023-04-26T08:52:51.501Z,41440.00
2023-04-26T08:53:51.685Z,40672.00
2023-04-26T08:54:51.569Z,34080.00
2023-04-26T08:55:51.432Z,38976.00
2023-04-26T08:56:51.391Z,36928.00
2023-04-26T08:57:51.380Z,25952.00
2023-04-26T08:58:51.367Z,25696.00
2023-04-26T08:59:51.346Z,47200.00
2023-04-26T09:00:51.337Z,28960.00
2023-04-26T09:01:51.377Z,29088.00
2023-04-26T09:02:51.549Z,66336.00
2023-04-26T09:03:51.780Z,35488.00
2023-04-26T09:04:51.456Z,63072.00
2023-04-26T09:05:51.265Z,26368.00
2023-04-26T09:06:51.258Z,21824.00
2023-04-26T09:07:51.290Z,19360.00
2023-04-26T09:08:51.234Z,17824.00
2023-04-26T09:09:51.217Z,17056.00
2023-04-26T09:10:51.228Z,16640.00
2023-04-26T09:11:51.198Z,16640.00
2023-04-26T09:12:51.181Z,17024.00
2023-04-26T09:13:51.467Z,17504.00
2023-04-26T09:14:51.156Z,17728.00
2023-04-26T09:15:51.221Z,17536.00
2023-04-26T09:16:51.130Z,17472.00
2023-04-26T09:17:51.178Z,17504.00
2023-04-26T09:18:51.226Z,17568.00
2023-04-26T09:19:51.094Z,17664.00
2023-04-26T09:20:51.074Z,18048.00
2023-04-26T09:21:51.062Z,18656.00
2023-04-26T09:22:51.055Z,18784.00
2023-04-26T09:23:51.043Z,19008.00
2023-04-26T09:24:51.028Z,19392.00
2023-04-26T09:25:51.011Z,19264.00
2023-04-26T09:26:51.030Z,18912.00
2023-04-26T09:27:50.988Z,18816.00
2023-04-26T09:28:51.309Z,18752.00
2023-04-26T09:29:50.966Z,18944.00
2023-04-26T09:30:50.968Z,19584.00
2023-04-26T09:31:50.984Z,20288.00
2023-04-26T09:32:50.967Z,20320.00
2023-04-26T09:33:50.903Z,20224.00
2023-04-26T09:34:50.896Z,20768.00
2023-04-26T09:35:50.876Z,21824.00
2023-04-26T09:36:50.865Z,23520.00
2023-04-26T09:37:58.424Z,28832.00
2023-04-26T09:38:50.989Z,28192.00
2023-04-26T09:39:50.827Z,43776.00
2023-04-26T09:40:50.856Z,37504.00
2023-04-26T09:41:50.799Z,37280.00
2023-04-26T09:42:50.833Z,31104.00
2023-04-26T09:43:50.773Z,27168.00
2023-04-26T09:44:50.761Z,25120.00
2023-04-26T09:45:51.094Z,24896.00
2023-04-26T09:46:50.783Z,25568.00
2023-04-26T09:47:50.750Z,25440.00
2023-04-26T09:48:50.964Z,41664.00
2023-04-26T09:49:50.704Z,36288.00
2023-04-26T09:50:50.688Z,34528.00
2023-04-26T09:51:50.675Z,30912.00
2023-04-26T09:52:50.659Z,35872.00
2023-04-26T09:53:50.651Z,32128.00
2023-04-26T09:54:50.652Z,33440.00
2023-04-26T09:55:50.620Z,27328.00
2023-04-26T09:56:50.605Z,26112.00
2023-04-26T10:00:23.723Z,21472.00
2023-04-26T10:01:23.232Z,20992.00
2023-04-26T10:02:23.308Z,21760.00
2023-04-26T10:03:23.403Z,22720.00
2023-04-26T10:04:23.203Z,22784.00
2023-04-26T10:05:23.135Z,23264.00
2023-04-26T10:06:23.121Z,26240.00
2023-04-26T10:07:23.113Z,28224.00
2023-04-26T10:08:23.091Z,24992.00
2023-04-26T10:09:23.082Z,21472.00
2023-04-26T10:10:23.068Z,22208.00
2023-04-26T10:11:23.058Z,21536.00
2023-04-26T10:12:23.059Z,20992.00
2023-04-26T10:13:23.042Z,21792.00
2023-04-26T10:14:23.017Z,24352.00
2023-04-26T10:15:23.001Z,31936.00
2023-04-26T10:16:23.078Z,40800.00
2023-04-26T10:17:23.072Z,42816.00
2023-04-26T10:18:22.968Z,34624.00
2023-04-26T10:19:22.957Z,38976.00
2023-04-26T10:20:22.944Z,33216.00
2023-04-26T10:21:22.923Z,38496.00
2023-04-26T10:22:22.924Z,42400.00
2023-04-26T10:23:22.902Z,45056.00
2023-04-26T10:24:22.893Z,50912.00
2023-04-26T10:25:22.875Z,43488.00
2023-04-26T10:26:22.864Z,46560.00
2023-04-26T10:27:22.853Z,45088.00
2023-04-26T10:28:22.842Z,51552.00
2023-04-26T10:29:22.832Z,40096.00
2023-04-26T10:30:22.815Z,32960.00
2023-04-26T10:31:22.843Z,28576.00
2023-04-26T10:32:22.897Z,27040.00
2023-04-26T10:33:22.820Z,32064.00
2023-04-26T10:34:22.764Z,41152.00
2023-04-26T10:35:22.767Z,38816.00
2023-04-26T10:36:22.738Z,47072.00
2023-04-26T10:37:22.735Z,38016.00
2023-04-26T10:38:22.722Z,46208.00
2023-04-26T10:39:22.703Z,40512.00
2023-04-26T10:40:22.692Z,42656.00
2023-04-26T10:41:22.677Z,43552.00
2023-04-26T10:42:24.293Z,45568.00
2023-04-26T10:43:24.324Z,49888.00
2023-04-26T10:44:22.644Z,51712.00
2023-04-26T10:45:22.627Z,52160.00
2023-04-26T10:46:22.711Z,45440.00
2023-04-26T10:47:22.723Z,37600.00
2023-04-26T10:48:22.660Z,38464.00
2023-04-26T10:49:24.226Z,40928.00
2023-04-26T10:50:22.567Z,44544.00
2023-04-26T10:51:22.558Z,38592.00
2023-04-26T10:52:22.537Z,38432.00
2023-04-26T10:53:22.527Z,43296.00
2023-04-26T10:54:22.514Z,39360.00
2023-04-26T10:55:24.339Z,44224.00
2023-04-26T10:56:22.489Z,46560.00
2023-04-26T10:57:22.486Z,44352.00
2023-04-26T10:58:22.462Z,47232.00
2023-04-26T10:59:39.748Z,46560.00
2023-04-26T11:00:24.440Z,54464.00
2023-04-26T11:01:22.456Z,52128.00
2023-04-26T11:02:22.480Z,52512.00
2023-04-26T11:03:22.564Z,47808.00
2023-04-26T11:04:22.629Z,47040.00
2023-04-26T11:05:24.861Z,43392.00
2023-04-26T11:06:22.363Z,44704.00
2023-04-26T11:07:22.351Z,42048.00
2023-04-26T11:08:22.337Z,42656.00
2023-04-26T11:09:22.326Z,34592.00
2023-04-26T11:10:22.315Z,38240.00
2023-04-26T11:11:22.301Z,37440.00
2023-04-26T11:12:22.304Z,30368.00
2023-04-26T11:13:22.282Z,49728.00
2023-04-26T11:14:22.261Z,65952.00
2023-04-26T11:15:22.252Z,54272.00
2023-04-26T11:16:22.276Z,41216.00
2023-04-26T11:17:22.309Z,38528.00
2023-04-26T11:18:22.210Z,49184.00
2023-04-26T11:19:22.207Z,53696.00
2023-04-26T11:20:22.226Z,40032.00
2023-04-26T11:21:22.179Z,41536.00
2023-04-26T11:22:22.169Z,50336.00
2023-04-26T11:23:22.154Z,45600.00
2023-04-26T11:24:22.140Z,30336.00
2023-04-26T11:25:22.127Z,26464.00
2023-04-26T11:26:22.108Z,25600.00
2023-04-26T11:27:22.103Z,24608.00
2023-04-26T11:28:22.091Z,24992.00
2023-04-26T11:29:22.088Z,25472.00
2023-04-26T11:30:22.064Z,27200.00
2023-04-26T11:31:22.096Z,29248.00
2023-04-26T11:32:22.043Z,33280.00
2023-04-26T11:33:22.031Z,34880.00
2023-04-26T11:34:22.013Z,34656.00
2023-04-26T11:35:22.006Z,38304.00
2023-04-26T11:36:22.020Z,42560.00
2023-04-26T11:37:21.979Z,43008.00
2023-04-26T11:38:21.968Z,49440.00
2023-04-26T11:39:21.950Z,50944.00
2023-04-26T11:40:21.937Z,37888.00
2023-04-26T11:41:21.926Z,36192.00
2023-04-26T11:42:21.911Z,46144.00
2023-04-26T11:43:21.964Z,38400.00
2023-04-26T11:44:21.896Z,60768.00
2023-04-26T11:45:21.876Z,59936.00
2023-04-26T11:46:21.917Z,55936.00
2023-04-26T11:47:21.852Z,47680.00
2023-04-26T11:48:21.900Z,58752.00
2023-04-26T11:49:21.825Z,47904.00
2023-04-26T11:50:21.825Z,61888.00
2023-04-26T11:51:21.799Z,44064.00
2023-04-26T11:52:21.805Z,54720.00
2023-04-26T11:53:21.782Z,42944.00
2023-04-26T11:54:21.761Z,43680.00
2023-04-26T11:55:21.750Z,36416.00
2023-04-26T11:56:21.739Z,35520.00
2023-04-26T11:57:21.724Z,34976.00
2023-04-26T11:58:21.723Z,33824.00
2023-04-26T11:59:21.699Z,31712.00
2023-04-26T12:00:21.684Z,35360.00
2023-04-26T12:01:21.679Z,36128.00
2023-04-26T12:02:21.765Z,36736.00
2023-04-26T12:03:21.917Z,35168.00
2023-04-26T12:04:21.900Z,38464.00
2023-04-26T12:05:21.661Z,40352.00
2023-04-26T12:06:21.622Z,42496.00
2023-04-26T12:07:21.596Z,41856.00
2023-04-26T12:08:21.625Z,54848.00
2023-04-26T12:09:21.578Z,57920.00
2023-04-26T12:10:21.557Z,50464.00
2023-04-26T12:11:21.547Z,40192.00
2023-04-26T12:12:21.531Z,42528.00
2023-04-26T12:13:21.518Z,44768.00
2023-04-26T12:14:21.506Z,41152.00
2023-04-26T12:15:21.493Z,54912.00
2023-04-26T12:16:26.720Z,48960.00
2023-04-26T12:17:21.578Z,46016.00
2023-04-26T12:18:21.514Z,33472.00
2023-04-26T12:19:21.441Z,35904.00
2023-04-26T12:20:21.425Z,31328.00